TAF and METAR

METAR for Istanbul Atatürk Airport

LTBA 292220Z 22006KT 180V250 CAVOK 16/13 Q1015 NOSIG RMK RWY17L 22007KT RWY05 23007KT RWY23 23008KT
Report created 30. mai 00:20
wind 6 knots from SW (220°) Wind direction varies from S to WSW Clear sky Temperature 16° with dewpoint at 13° (Humidity 82.40%) Pressure 1015 hPa no significant weather change expected the next couple of hours

TAF for Istanbul Atatürk Airport

TAF LTBA 291640Z 2918/3024 24009KT 9999 FEW035 BKN100 BECMG 2918/2920 CAVOK BECMG 3002/3003 SCT035 SCT100 BECMG 3008/3012 CAVOK
Report created 29. mai 18:40

between 29. mai 20:00 - 30. mai 02:00

wind 9 knots from WSW (240°) visibility > 10km some clouds (~25% cover) at 3500 feet broken clouds (~75% cover) at 10000 feet

becoming between 29. mai 20:00 - 29. mai 22:00

Clear sky

becoming between 30. mai 04:00 - 30. mai 05:00

scattered clouds (~50% cover) at 3500 feet scattered clouds (~50% cover) at 10000 feet

becoming between 30. mai 10:00 - 30. mai 14:00

Clear sky